Bayle, Illinois
Current Conditions -  °F | °C
As of 12:55 AM on Monday 22 Dec 2014 (Local Time) from K1H2 Reporting Station
Overcast Overcast  
Wind Chill: -3°   Ceiling: 6000
Heat Index:   Visibility: 7mi
Dew Point: -3°   Wind: 9mph
Humidity: 75%   Direction: 100°E
Pressure: 29.99"   Gusts: NA
Location:  39.1031°N, 89.1042°W
Report Text: K1H2 220655Z AUTO 10008KT 7SM OVC060 02/M02 A2999 RMK AO2 T00151025
Loading
Personal Weather Stations






























Interactive Weather Map New forecast layout! Learn more

10-Day Weather Forecast

Advertisements
Track Severe Weather on mobile